createdAt,value
2023-10-05T00:00:14.733Z,96373.25
2023-10-05T00:03:16.694Z,96358.81
2023-10-05T00:06:21.308Z,96374.13
2023-10-05T00:09:23.713Z,96372.94
2023-10-05T00:12:25.787Z,96372.72
2023-10-05T00:15:29.262Z,96380.63
2023-10-05T00:18:31.344Z,96382.38
2023-10-05T00:21:35.972Z,96380.25
2023-10-05T00:24:38.226Z,96374.75
2023-10-05T00:27:40.780Z,96359.84
2023-10-05T00:30:43.184Z,96350.97
2023-10-05T00:33:45.489Z,96363.16
2023-10-05T00:36:49.238Z,96361.00
2023-10-05T00:39:51.222Z,96354.72
2023-10-05T00:42:53.094Z,96349.66
2023-10-05T00:45:56.977Z,96341.00
2023-10-05T00:48:59.176Z,96338.31
2023-10-05T00:52:02.578Z,96337.03
2023-10-05T00:55:08.110Z,96331.97
2023-10-05T00:58:10.567Z,96326.88
2023-10-05T01:01:13.259Z,96321.13
2023-10-05T01:04:15.340Z,96316.69
2023-10-05T01:07:22.665Z,96320.22
2023-10-05T01:10:25.918Z,96326.63
2023-10-05T01:13:29.864Z,96319.44
2023-10-05T01:16:33.398Z,96323.31
2023-10-05T01:19:35.481Z,96319.94
2023-10-05T01:22:38.855Z,96309.19
2023-10-05T01:25:42.111Z,96321.63
2023-10-05T01:28:46.902Z,96324.81
2023-10-05T01:31:49.383Z,96325.69
2023-10-05T01:34:51.783Z,96304.47
2023-10-05T01:37:54.261Z,96307.16
2023-10-05T01:40:57.778Z,96296.56
2023-10-05T01:44:00.967Z,96295.88
2023-10-05T01:47:03.272Z,96299.75
2023-10-05T01:50:06.612Z,96298.41
2023-10-05T01:53:08.809Z,96296.31
2023-10-05T01:56:16.756Z,96289.28
2023-10-05T01:59:19.545Z,96288.34
2023-10-05T02:02:21.798Z,96292.16
2023-10-05T02:05:23.996Z,96303.44
2023-10-05T02:08:27.527Z,96299.41
2023-10-05T02:11:30.994Z,96295.22
2023-10-05T02:14:33.314Z,96302.59
2023-10-05T02:17:37.013Z,96295.69
2023-10-05T02:20:41.274Z,96296.06
2023-10-05T02:23:44.480Z,96301.00
2023-10-05T02:26:49.085Z,96309.28
2023-10-05T02:29:51.045Z,96300.78
2023-10-05T02:32:52.828Z,96298.25
2023-10-05T02:35:56.076Z,96298.47
2023-10-05T02:38:59.236Z,96299.16
2023-10-05T02:42:02.874Z,96308.94
2023-10-05T02:45:07.210Z,96305.72
2023-10-05T02:48:09.125Z,96305.03
2023-10-05T02:51:11.322Z,96300.75
2023-10-05T02:54:13.494Z,96300.00
2023-10-05T02:57:17.811Z,96302.00
2023-10-05T03:00:21.586Z,96301.47
2023-10-05T03:03:23.717Z,96304.16
2023-10-05T03:06:25.924Z,96307.47
2023-10-05T03:09:28.784Z,96314.13
2023-10-05T03:12:32.563Z,96321.28
2023-10-05T03:15:35.070Z,96312.00
2023-10-05T03:18:37.550Z,96310.50
2023-10-05T03:21:40.721Z,96307.22
2023-10-05T03:24:43.377Z,96311.06
2023-10-05T03:27:46.576Z,96305.00
2023-10-05T03:30:48.398Z,96303.59
2023-10-05T03:33:52.775Z,96310.31
2023-10-05T03:36:55.907Z,96316.41
2023-10-05T03:39:57.778Z,96310.28
2023-10-05T03:43:01.413Z,96309.03
2023-10-05T03:46:06.734Z,96304.06
2023-10-05T03:49:09.117Z,96302.44
2023-10-05T03:52:11.431Z,96301.75
2023-10-05T03:55:13.580Z,96298.28
2023-10-05T03:58:17.006Z,96293.94
2023-10-05T04:01:19.208Z,96296.81
2023-10-05T04:04:22.633Z,96299.19
2023-10-05T04:07:24.529Z,96304.34
2023-10-05T04:10:29.344Z,96305.13
2023-10-05T04:13:32.516Z,96302.06
2023-10-05T04:16:34.682Z,96300.94
2023-10-05T04:19:38.330Z,96304.81
2023-10-05T04:22:40.697Z,96298.72
2023-10-05T04:25:42.836Z,96295.22
2023-10-05T04:28:46.974Z,96304.13
2023-10-05T04:31:48.717Z,96297.91
2023-10-05T04:34:50.861Z,96299.31
2023-10-05T04:37:53.578Z,96306.44
2023-10-05T04:40:58.808Z,96309.50
2023-10-05T04:44:02.831Z,96304.59
2023-10-05T04:47:05.122Z,96296.44
2023-10-05T04:50:09.100Z,96286.63
2023-10-05T04:53:10.920Z,96297.50
2023-10-05T04:56:12.843Z,96287.13
2023-10-05T04:59:16.117Z,96292.38
2023-10-05T05:02:19.289Z,96289.72
2023-10-05T05:05:21.427Z,96296.63
2023-10-05T05:08:23.361Z,96292.13
2023-10-05T05:11:25.478Z,96292.56
2023-10-05T05:14:28.757Z,96292.59
2023-10-05T05:17:31.094Z,96294.81
2023-10-05T05:20:34.877Z,96299.13
2023-10-05T05:23:37.084Z,96298.31
2023-10-05T05:26:39.482Z,96291.47
2023-10-05T05:29:43.381Z,96292.97
2023-10-05T05:32:45.945Z,96285.66
2023-10-05T05:35:50.007Z,96290.97
2023-10-05T05:38:52.222Z,96285.91
2023-10-05T05:41:54.149Z,96287.59
2023-10-05T05:44:57.491Z,96284.88
2023-10-05T05:47:59.345Z,96287.03
2023-10-05T05:51:01.478Z,96296.63
2023-10-05T05:54:03.922Z,96307.38
2023-10-05T05:57:06.117Z,96307.56
2023-10-05T06:00:10.912Z,96313.53
2023-10-05T06:03:12.875Z,96318.53
2023-10-05T06:06:15.085Z,96325.81
2023-10-05T06:09:17.373Z,96325.19
2023-10-05T06:12:19.174Z,96331.41
2023-10-05T06:15:23.122Z,96328.88
2023-10-05T06:18:25.438Z,96329.31
2023-10-05T06:21:27.812Z,96322.69
2023-10-05T06:24:31.024Z,96315.53
2023-10-05T06:27:33.497Z,96321.78
2023-10-05T06:30:37.654Z,96322.25
2023-10-05T06:33:40.014Z,96329.56
2023-10-05T06:36:42.556Z,96327.81
2023-10-05T06:39:44.325Z,96329.94
2023-10-05T06:42:47.991Z,96325.03
2023-10-05T06:45:51.437Z,96329.63
2023-10-05T06:48:53.986Z,96324.47
2023-10-05T06:51:55.785Z,96319.59
2023-10-05T06:54:57.888Z,96317.47
2023-10-05T06:58:00.568Z,96327.94
2023-10-05T07:01:03.952Z,96337.03
2023-10-05T07:04:05.902Z,96334.44
2023-10-05T07:07:07.838Z,96341.84
2023-10-05T07:10:15.445Z,96336.47
2023-10-05T07:13:17.351Z,96335.69
2023-10-05T07:16:20.774Z,96333.78
2023-10-05T07:19:23.942Z,96336.38
2023-10-05T07:22:26.381Z,96328.53
2023-10-05T07:25:28.670Z,96328.34
2023-10-05T07:28:31.572Z,96335.00
2023-10-05T07:31:35.249Z,96334.69
2023-10-05T07:34:39.604Z,96331.72
2023-10-05T07:37:41.647Z,96339.94
2023-10-05T07:40:43.651Z,96333.44
2023-10-05T07:43:51.191Z,96330.75
2023-10-05T07:47:01.869Z,96329.66
2023-10-05T07:50:04.483Z,96335.47
2023-10-05T07:53:06.999Z,96335.09
2023-10-05T07:56:10.468Z,96334.25
2023-10-05T07:59:12.644Z,96337.75
2023-10-05T08:02:16.110Z,96339.44
2023-10-05T08:05:18.722Z,96330.53
2023-10-05T08:08:22.696Z,96331.03
2023-10-05T08:11:24.511Z,96331.53
2023-10-05T08:14:27.340Z,96334.22
2023-10-05T08:17:33.560Z,96336.19
2023-10-05T08:20:35.807Z,96337.00
2023-10-05T08:23:37.733Z,96339.41
2023-10-05T08:26:42.103Z,96336.72
2023-10-05T08:29:44.419Z,96338.34
2023-10-05T08:32:47.956Z,96336.09
2023-10-05T08:35:50.309Z,96348.59
2023-10-05T08:38:52.374Z,96339.03
2023-10-05T08:41:54.960Z,96343.00
2023-10-05T08:44:57.215Z,96350.44
2023-10-05T08:48:00.793Z,96344.66
2023-10-05T08:51:04.625Z,96336.22
2023-10-05T08:54:08.340Z,96326.56
2023-10-05T08:57:12.095Z,96336.38
2023-10-05T09:00:15.223Z,96324.44
2023-10-05T09:03:18.381Z,96331.47
2023-10-05T09:06:20.338Z,96327.28
2023-10-05T09:09:32.272Z,96336.69
2023-10-05T09:12:34.440Z,96333.97
2023-10-05T09:15:50.329Z,96334.81
2023-10-05T09:18:54.023Z,96330.59
2023-10-05T09:21:56.746Z,96337.59
2023-10-05T09:24:58.928Z,96330.22
2023-10-05T09:28:02.797Z,96341.53
2023-10-05T09:31:04.718Z,96339.59
2023-10-05T09:34:08.164Z,96339.22
2023-10-05T09:37:12.161Z,96336.94
2023-10-05T09:40:14.566Z,96336.59
2023-10-05T09:43:17.256Z,96338.53
2023-10-05T09:46:22.181Z,96345.13
2023-10-05T09:49:26.202Z,96347.50
2023-10-05T09:52:28.746Z,96349.47
2023-10-05T09:55:31.640Z,96351.00
2023-10-05T09:58:35.040Z,96349.84
2023-10-05T10:01:37.063Z,96354.84
2023-10-05T10:04:41.594Z,96349.84
2023-10-05T10:07:45.355Z,96358.38
2023-10-05T10:10:52.100Z,96352.53
2023-10-05T10:13:55.067Z,96340.09
2023-10-05T10:16:58.719Z,96345.94
2023-10-05T10:20:15.212Z,96347.50
2023-10-05T10:23:21.164Z,96341.66
2023-10-05T10:26:22.943Z,96340.84
2023-10-05T10:29:40.935Z,96342.00
2023-10-05T10:32:43.169Z,96327.53
2023-10-05T10:35:48.595Z,96330.97
2023-10-05T10:38:52.220Z,96327.44
2023-10-05T10:41:58.219Z,96319.69
2023-10-05T10:45:00.426Z,96320.81
2023-10-05T10:48:02.309Z,96318.09
2023-10-05T10:51:05.910Z,96314.94
2023-10-05T10:54:10.931Z,96318.50
2023-10-05T10:57:13.001Z,96311.09
2023-10-05T11:00:16.049Z,96310.69
2023-10-05T11:03:18.295Z,96309.09
2023-10-05T11:06:21.702Z,96296.63
2023-10-05T11:09:25.849Z,96298.97
2023-10-05T11:12:28.831Z,96294.22
2023-10-05T11:15:32.361Z,96292.25
2023-10-05T11:18:35.261Z,96294.19
2023-10-05T11:21:38.922Z,96298.78
2023-10-05T11:25:03.686Z,96291.69
2023-10-05T11:28:07.054Z,96297.56
2023-10-05T11:31:17.882Z,96295.31
2023-10-05T11:35:16.331Z,96291.88
2023-10-05T11:37:55.070Z,96296.13
2023-10-05T11:40:57.595Z,96290.25
2023-10-05T11:44:00.977Z,96283.19
2023-10-05T11:47:04.194Z,96283.16
2023-10-05T11:50:08.434Z,96278.03
2023-10-05T11:53:12.913Z,96286.91
2023-10-05T11:56:16.312Z,96279.56
2023-10-05T11:59:27.012Z,96284.31
2023-10-05T12:02:29.048Z,96281.19
2023-10-05T12:05:33.084Z,96285.00
2023-10-05T12:08:41.783Z,96277.63
2023-10-05T12:11:43.879Z,96281.44
2023-10-05T12:14:47.013Z,96265.78
2023-10-05T12:17:49.083Z,96259.94
2023-10-05T12:20:51.436Z,96260.66
2023-10-05T12:23:56.645Z,96259.06
2023-10-05T12:26:59.713Z,96255.56
2023-10-05T12:30:04.387Z,96261.34
2023-10-05T12:33:06.636Z,96269.78
2023-10-05T12:36:09.326Z,96271.31
2023-10-05T12:39:17.535Z,96270.09
2023-10-05T12:42:22.127Z,96274.81
2023-10-05T12:45:24.533Z,96277.47
2023-10-05T12:48:26.369Z,96270.00
2023-10-05T12:51:29.746Z,96265.06
2023-10-05T12:54:33.301Z,96258.53
2023-10-05T12:57:37.126Z,96277.38
2023-10-05T13:00:39.300Z,96267.34
2023-10-05T13:03:47.759Z,96271.59
2023-10-05T13:06:49.997Z,96270.81
2023-10-05T13:09:53.306Z,96268.44
2023-10-05T13:12:55.659Z,96268.47
2023-10-05T13:15:58.665Z,96266.97
2023-10-05T13:19:02.185Z,96269.72
2023-10-05T13:22:04.017Z,96271.19
2023-10-05T13:25:08.434Z,96277.09
2023-10-05T13:28:11.378Z,96275.03
2023-10-05T13:31:21.282Z,96278.53
2023-10-05T13:34:23.485Z,96280.53
2023-10-05T13:37:26.487Z,96277.50
2023-10-05T13:40:29.870Z,96273.69
2023-10-05T13:43:33.215Z,96273.28
2023-10-05T13:46:35.353Z,96260.81
2023-10-05T13:49:37.857Z,96271.00
2023-10-05T13:52:40.273Z,96262.84
2023-10-05T13:55:43.683Z,96273.78
2023-10-05T13:58:46.905Z,96276.63
2023-10-05T14:01:50.435Z,96274.63
2023-10-05T14:04:53.728Z,96261.84
2023-10-05T14:07:55.633Z,96270.78
2023-10-05T14:10:58.812Z,96266.94
2023-10-05T14:14:02.719Z,96271.94
2023-10-05T14:17:05.729Z,96277.06
2023-10-05T14:20:09.681Z,96277.44
2023-10-05T14:23:11.984Z,96279.75
2023-10-05T14:26:15.560Z,96282.56
2023-10-05T14:29:17.761Z,96284.16
2023-10-05T14:32:20.186Z,96296.28
2023-10-05T14:35:22.069Z,96289.25
2023-10-05T14:38:24.868Z,96276.81
2023-10-05T14:41:28.136Z,96281.44
2023-10-05T14:44:30.863Z,96286.19
2023-10-05T14:47:33.272Z,96279.94
2023-10-05T14:50:38.187Z,96279.94
2023-10-05T14:53:40.327Z,96282.69
2023-10-05T14:56:47.469Z,96283.44
2023-10-05T14:59:50.020Z,96295.16
2023-10-05T15:02:52.367Z,96296.75
2023-10-05T15:05:54.473Z,96299.09
2023-10-05T15:08:56.607Z,96301.06
2023-10-05T15:12:00.147Z,96301.13
2023-10-05T15:15:02.780Z,96303.03
2023-10-05T15:18:06.682Z,96315.81
2023-10-05T15:21:08.642Z,96312.38
2023-10-05T15:24:11.173Z,96316.22
2023-10-05T15:27:14.428Z,96303.03
2023-10-05T15:30:17.406Z,96309.25
2023-10-05T15:33:19.267Z,96314.28
2023-10-05T15:36:21.352Z,96312.78
2023-10-05T15:39:23.306Z,96311.63
2023-10-05T15:42:26.505Z,96312.84
2023-10-05T15:45:29.281Z,96323.72
2023-10-05T15:48:31.302Z,96318.28
2023-10-05T15:51:33.355Z,96317.50
2023-10-05T15:54:35.251Z,96315.59
2023-10-05T15:57:39.232Z,96324.91
2023-10-05T16:00:41.430Z,96326.47
2023-10-05T16:03:43.768Z,96339.72
2023-10-05T16:06:47.722Z,96340.47
2023-10-05T16:09:49.583Z,96339.31
2023-10-05T16:12:53.099Z,96343.59
2023-10-05T16:15:57.422Z,96352.94
2023-10-05T16:18:59.721Z,96352.91
2023-10-05T16:22:01.541Z,96356.47
2023-10-05T16:25:04.164Z,96350.22
2023-10-05T16:28:07.754Z,96351.78
2023-10-05T16:31:10.577Z,96357.22
2023-10-05T16:34:12.965Z,96355.28
2023-10-05T16:37:16.481Z,96359.16
2023-10-05T16:40:19.253Z,96357.59
2023-10-05T16:43:22.488Z,96359.94
2023-10-05T16:46:24.535Z,96351.00
2023-10-05T16:49:30.648Z,96368.50
2023-10-05T16:52:32.802Z,96375.09
2023-10-05T16:55:35.311Z,96372.78
2023-10-05T16:58:41.933Z,96390.28
2023-10-05T17:01:45.308Z,96389.50
2023-10-05T17:04:50.637Z,96380.53
2023-10-05T17:07:56.128Z,96373.94
2023-10-05T17:10:59.283Z,96377.41
2023-10-05T17:14:06.204Z,96382.09
2023-10-05T17:17:09.760Z,96359.16
2023-10-05T17:20:16.424Z,96360.72
2023-10-05T17:23:21.244Z,96371.22
2023-10-05T17:26:24.777Z,96388.31
2023-10-05T17:29:30.213Z,96381.31
2023-10-05T17:32:34.135Z,96386.00
2023-10-05T17:35:42.294Z,96375.13
2023-10-05T17:38:48.713Z,96382.06
2023-10-05T17:41:53.505Z,96373.53
2023-10-05T17:45:03.768Z,96390.59
2023-10-05T17:48:08.294Z,96378.97
2023-10-05T17:51:12.686Z,96378.19
2023-10-05T17:54:17.572Z,96384.41
2023-10-05T17:57:23.173Z,96380.88
2023-10-05T18:00:30.176Z,96373.50
2023-10-05T18:03:34.138Z,96382.41
2023-10-05T18:06:38.807Z,96379.31
2023-10-05T18:09:42.681Z,96380.09
2023-10-05T18:12:47.694Z,96375.41
2023-10-05T18:15:55.326Z,96368.00
2023-10-05T18:19:02.001Z,96368.81
2023-10-05T18:22:08.278Z,96375.41
2023-10-05T18:25:14.835Z,96375.03
2023-10-05T18:28:21.515Z,96361.06
2023-10-05T18:31:31.445Z,96357.53
2023-10-05T18:34:37.709Z,96357.56
2023-10-05T18:37:42.395Z,96360.28
2023-10-05T18:40:46.994Z,96359.91
2023-10-05T18:43:52.067Z,96348.25
2023-10-05T18:47:03.430Z,96337.38
2023-10-05T18:50:11.135Z,96339.72
2023-10-05T18:53:14.914Z,96332.34
2023-10-05T18:56:21.812Z,96316.38
2023-10-05T18:59:27.723Z,96310.19
2023-10-05T19:02:38.046Z,96307.47
2023-10-05T19:05:43.785Z,96297.38
2023-10-05T19:08:50.528Z,96277.94
2023-10-05T19:11:57.033Z,96263.56
2023-10-05T19:15:04.944Z,96241.84
2023-10-05T19:18:12.904Z,96251.16
2023-10-05T19:21:18.557Z,96258.16
2023-10-05T19:24:23.462Z,96241.44
2023-10-05T19:27:29.305Z,96252.31
2023-10-05T19:30:35.861Z,96267.47
2023-10-05T19:33:44.471Z,96277.94
2023-10-05T19:36:51.162Z,96286.41
2023-10-05T19:39:55.080Z,96304.84
2023-10-05T19:42:59.089Z,96331.47
2023-10-05T19:46:04.818Z,96363.34
2023-10-05T19:49:11.550Z,96372.59
2023-10-05T19:52:16.715Z,96368.47
2023-10-05T19:55:21.408Z,96367.19
2023-10-05T19:58:26.512Z,96375.34
2023-10-05T20:01:31.734Z,96381.59
2023-10-05T20:04:39.856Z,96388.19
2023-10-05T20:07:43.946Z,96388.16
2023-10-05T20:10:48.942Z,96391.31
2023-10-05T20:13:53.000Z,96394.09
2023-10-05T20:16:58.972Z,96394.13
2023-10-05T20:20:04.413Z,96400.00
2023-10-05T20:23:08.127Z,96393.75
2023-10-05T20:26:12.876Z,96399.53
2023-10-05T20:29:17.670Z,96401.06
2023-10-05T20:32:21.349Z,96401.75
2023-10-05T20:35:25.059Z,96405.19
2023-10-05T20:38:28.341Z,96410.63
2023-10-05T20:41:33.470Z,96409.44
2023-10-05T20:44:36.491Z,96405.63
2023-10-05T20:47:39.443Z,96412.59
2023-10-05T20:50:44.780Z,96407.16
2023-10-05T20:53:46.754Z,96408.31
2023-10-05T20:56:48.502Z,96410.63
2023-10-05T20:59:51.617Z,96408.00
2023-10-05T21:02:53.698Z,96405.63
2023-10-05T21:06:01.146Z,96416.81
2023-10-05T21:09:04.643Z,96415.97
2023-10-05T21:12:07.451Z,96418.69
2023-10-05T21:15:10.584Z,96412.13
2023-10-05T21:18:13.731Z,96415.59
2023-10-05T21:21:17.063Z,96415.53
2023-10-05T21:24:19.649Z,96405.38
2023-10-05T21:27:23.838Z,96410.75
2023-10-05T21:30:25.745Z,96413.81
2023-10-05T21:33:27.950Z,96407.84
2023-10-05T21:36:32.710Z,96406.59
2023-10-05T21:39:34.942Z,96411.25
2023-10-05T21:42:37.716Z,96408.22
2023-10-05T21:45:41.493Z,96407.84
2023-10-05T21:48:43.289Z,96412.25
2023-10-05T21:51:48.699Z,96422.03
2023-10-05T21:54:52.090Z,96419.53
2023-10-05T21:57:54.042Z,96418.50
2023-10-05T22:00:56.623Z,96411.22
2023-10-05T22:04:00.018Z,96422.94
2023-10-05T22:07:03.201Z,96439.31
2023-10-05T22:10:06.089Z,96445.94
2023-10-05T22:13:08.393Z,96446.34
2023-10-05T22:16:12.351Z,96448.25
2023-10-05T22:19:14.443Z,96449.38
2023-10-05T22:22:17.956Z,96457.44
2023-10-05T22:25:23.409Z,96454.78
2023-10-05T22:28:25.129Z,96455.25
2023-10-05T22:31:27.487Z,96466.50
2023-10-05T22:34:29.424Z,96450.63
2023-10-05T22:37:32.738Z,96455.69
2023-10-05T22:40:34.879Z,96454.16
2023-10-05T22:43:38.319Z,96460.38
2023-10-05T22:46:40.180Z,96464.28
2023-10-05T22:49:42.445Z,96461.94
2023-10-05T22:52:46.849Z,96464.66
2023-10-05T22:55:49.074Z,96465.06
2023-10-05T22:58:52.325Z,96467.03
2023-10-05T23:01:54.454Z,96472.38
2023-10-05T23:04:58.008Z,96473.56
2023-10-05T23:08:01.657Z,96470.78
2023-10-05T23:11:03.973Z,96476.56
2023-10-05T23:14:08.804Z,96476.16
2023-10-05T23:17:11.001Z,96475.00
2023-10-05T23:20:13.430Z,96475.44
2023-10-05T23:23:16.833Z,96470.31
2023-10-05T23:26:20.659Z,96473.03
2023-10-05T23:29:22.821Z,96474.06
2023-10-05T23:32:27.630Z,96471.75
2023-10-05T23:35:29.448Z,96478.66
2023-10-05T23:38:33.149Z,96476.84
2023-10-05T23:41:35.464Z,96490.44
2023-10-05T23:44:40.608Z,96486.19
2023-10-05T23:47:42.770Z,96486.50
2023-10-05T23:50:44.677Z,96479.81
2023-10-05T23:53:48.881Z,96480.91
2023-10-05T23:56:52.249Z,96476.97
2023-10-05T23:59:54.252Z,96471.84
